Time;durP1;ratioP1;P1;durP2;ratioP2;P2;SDS_P1;SDS_P2;PMS_P1;PMS_P2;Temp;Humidity;BMP_temperature;BMP_pressure;BME280_temperature;BME280_humidity;BME280_pressure;Samples;Min_cycle;Max_cycle;Signal;HPM_P1;HPM_P2
2022/08/04 00:01:51;;;;;;;16.55;8.25;;;;;;;19.72;83.92;100974.55;1860449;76;21127;-72
2022/08/04 00:04:25;;;;;;;14.63;7.87;;;;;;;19.68;83.74;100974.77;1879399;76;21040;-72
2022/08/04 00:07:06;;;;;;;12.37;7.10;;;;;;;19.64;83.69;100979.97;1880541;76;21103;-72
2022/08/04 00:10:02;;;;;;;12.37;7.03;;;;;;;19.63;83.70;100982.25;1880765;75;21115;-72
2022/08/04 00:12:33;;;;;;;16.52;7.55;;;;;;;19.58;83.65;100984.41;1880851;76;21012;-72
2022/08/04 00:15:05;;;;;;;12.82;7.53;;;;;;;19.54;83.54;100979.41;1880834;76;21012;-72
2022/08/04 00:17:36;;;;;;;15.18;7.55;;;;;;;19.51;83.54;100977.80;1880674;76;21040;-73
2022/08/04 00:20:06;;;;;;;13.95;7.85;;;;;;;19.47;83.63;100979.00;1880866;75;21040;-73
2022/08/04 00:22:37;;;;;;;15.08;7.12;;;;;;;19.45;83.75;100980.93;1880811;76;21173;-73
2022/08/04 00:25:06;;;;;;;11.70;6.87;;;;;;;19.41;83.52;100985.64;1880779;76;21164;-73
2022/08/04 00:27:35;;;;;;;15.32;8.23;;;;;;;19.36;83.44;100986.45;1880827;76;21583;-73
2022/08/04 00:30:05;;;;;;;12.23;7.65;;;;;;;19.34;83.38;100975.52;1880743;76;21548;-73
2022/08/04 00:32:35;;;;;;;12.98;7.75;;;;;;;19.33;83.43;100981.80;1880832;76;21118;-73
2022/08/04 00:35:04;;;;;;;14.33;6.80;;;;;;;19.32;83.46;100984.12;1901513;75;21132;-71
2022/08/04 00:37:34;;;;;;;18.60;7.55;;;;;;;19.30;83.54;100988.23;1901904;75;21051;-71
2022/08/04 00:40:09;;;;;;;13.10;8.03;;;;;;;19.29;83.46;100984.72;1901909;75;21486;-70
2022/08/04 00:42:46;;;;;;;15.70;7.85;;;;;;;19.29;83.65;100990.05;1901144;75;21081;-70
2022/08/04 00:45:39;;;;;;;12.37;8.50;;;;;;;19.30;83.74;100985.56;1901802;75;21169;-70
2022/08/04 00:48:17;;;;;;;13.90;8.35;;;;;;;19.31;84.19;100982.40;1902010;75;21443;-70
2022/08/04 00:50:51;;;;;;;14.90;7.75;;;;;;;19.31;84.79;100986.41;1911332;75;21470;-71
2022/08/04 00:53:22;;;;;;;23.40;12.15;;;;;;;19.27;85.01;100989.31;1914106;75;21126;-72
2022/08/04 00:56:06;;;;;;;34.25;18.42;;;;;;;19.30;84.93;100994.91;1914195;75;21110;-72
2022/08/04 00:58:58;;;;;;;54.73;28.42;;;;;;;19.32;84.92;100998.80;1912783;75;21083;-72
2022/08/04 01:01:53;;;;;;;44.58;25.27;;;;;;;19.31;85.58;100994.41;1914055;75;21117;-72
2022/08/04 01:04:30;;;;;;;45.50;24.18;;;;;;;19.27;85.71;100987.98;1913209;75;21169;-72
2022/08/04 01:07:13;;;;;;;42.40;21.60;;;;;;;19.28;86.19;100985.66;1913871;75;21040;-73
2022/08/04 01:09:45;;;;;;;;;;;;;;;19.30;86.42;100997.58;1915621;75;21008;-72
2022/08/04 01:12:17;;;;;;;19.07;10.78;;;;;;;19.30;86.39;100996.24;1913852;75;20149;-71
2022/08/04 01:15:06;;;;;;;20.02;9.23;;;;;;;19.29;86.27;101000.73;1913049;75;21184;-71
2022/08/04 01:17:50;;;;;;;14.38;8.25;;;;;;;19.30;86.12;100998.91;1914208;75;21118;-70
2022/08/04 01:20:24;;;;;;;15.03;8.30;;;;;;;19.26;85.97;101000.95;1912632;75;21130;-70
2022/08/04 01:23:30;;;;;;;16.62;7.92;;;;;;;19.22;85.85;101003.95;1914122;75;21502;-71
2022/08/04 01:26:07;;;;;;;13.95;7.62;;;;;;;19.16;85.64;101006.55;1811682;79;21193;-71
2022/08/04 01:28:47;;;;;;;16.23;9.15;;;;;;;19.09;85.55;101001.30;1795146;79;21189;-71
2022/08/04 01:31:22;;;;;;;17.37;9.75;;;;;;;19.06;85.95;100998.84;1857453;75;21545;-71
2022/08/04 01:33:53;;;;;;;15.32;8.95;;;;;;;19.04;86.39;101000.77;1901484;74;21080;-72
2022/08/04 01:36:24;;;;;;;16.60;8.85;;;;;;;19.05;86.43;101003.80;1812517;79;21117;-71
2022/08/04 01:38:55;;;;;;;15.93;9.85;;;;;;;19.05;86.27;101002.00;1844613;78;21114;-71
2022/08/04 01:41:24;;;;;;;14.90;9.75;;;;;;;19.03;86.23;100999.05;1812566;79;21493;-71
2022/08/04 01:43:56;;;;;;;20.62;9.10;;;;;;;19.01;86.36;100999.16;1844689;78;21553;-71
2022/08/04 01:46:26;;;;;;;17.70;9.00;;;;;;;18.99;86.32;101004.23;1812614;79;21125;-71
2022/08/04 01:48:57;;;;;;;15.85;9.25;;;;;;;18.97;86.26;101007.50;1844728;78;21052;-71
2022/08/04 01:51:26;;;;;;;17.82;10.00;;;;;;;18.94;86.10;101009.03;1812495;79;21047;-71
2022/08/04 01:53:55;;;;;;;14.40;8.90;;;;;;;18.91;86.22;101008.78;1844896;78;21028;-71
2022/08/04 01:56:26;;;;;;;14.73;9.95;;;;;;;18.90;86.29;101007.06;1812583;79;21030;-71
2022/08/04 01:58:59;;;;;;;19.35;9.15;;;;;;;18.89;86.36;101003.55;1844839;78;21075;-71
2022/08/04 02:01:27;;;;;;;;;;;;;;;18.89;86.40;101006.22;1815329;79;21054;-73
2022/08/04 02:03:56;;;;;;;18.65;10.28;;;;;;;18.89;86.57;101006.22;1844582;78;20163;-73
2022/08/04 02:06:42;;;;;;;20.15;10.72;;;;;;;18.89;86.45;101006.22;1812506;79;21559;-71
2022/08/04 02:09:14;;;;;;;17.57;9.33;;;;;;;18.89;86.53;101010.22;1844851;78;21569;-72
2022/08/04 02:11:45;;;;;;;19.45;9.75;;;;;;;18.88;86.75;101015.16;1833701;78;21470;-72
2022/08/04 02:14:39;;;;;;;16.05;9.08;;;;;;;18.87;86.99;101013.48;1835788;78;21142;-72
2022/08/04 02:16:52;;;;;;;13.65;9.20;;;;;;;18.86;87.09;101014.91;1794841;79;21058;-72
2022/08/04 02:19:36;;;;;;;23.70;10.48;;;;;;;18.86;87.20;101015.76;1844814;78;21056;-73
2022/08/04 02:22:07;;;;;;;18.80;9.40;;;;;;;18.85;87.24;101018.06;1810806;79;21055;-73
2022/08/04 02:24:39;;;;;;;17.62;9.40;;;;;;;18.90;87.14;101025.73;1839180;78;21123;-73
2022/08/04 02:27:09;;;;;;;16.65;9.73;;;;;;;18.94;87.17;101029.92;1842001;78;21453;-73
2022/08/04 02:29:47;;;;;;;18.55;9.95;;;;;;;18.97;87.07;101031.02;1844750;78;21123;-73
2022/08/04 02:32:27;;;;;;;14.15;8.40;;;;;;;18.97;86.85;101034.18;1812196;79;21090;-73
2022/08/04 02:34:59;;;;;;;23.27;9.95;;;;;;;18.97;86.75;101031.02;1846784;77;21087;-72
2022/08/04 02:37:29;;;;;;;18.62;9.23;;;;;;;18.99;86.77;101032.25;1900704;75;21060;-73
2022/08/04 02:40:01;;;;;;;18.70;10.78;;;;;;;19.00;86.69;101034.82;1901943;75;21114;-71
2022/08/04 02:42:30;;;;;;;18.40;10.88;;;;;;;19.01;86.64;101031.17;1901849;75;21036;-71
2022/08/04 02:45:00;;;;;;;25.97;10.55;;;;;;;19.05;86.47;101031.81;1901931;75;21605;-71
2022/08/04 02:47:30;;;;;;;17.30;10.05;;;;;;;19.07;86.38;101032.55;1901905;75;21482;-73
2022/08/04 02:50:00;;;;;;;23.40;10.65;;;;;;;19.08;86.39;101035.61;1901857;75;21044;-72
2022/08/04 02:52:31;;;;;;;17.70;10.00;;;;;;;19.09;86.29;101034.17;1901973;75;21486;-71
2022/08/04 02:55:01;;;;;;;17.10;10.10;;;;;;;19.12;86.18;101036.25;1901881;75;21052;-70
2022/08/04 02:57:31;;;;;;;14.90;9.70;;;;;;;19.18;86.31;101034.02;1901986;75;21415;-70
2022/08/04 03:00:14;;;;;;;17.50;9.90;;;;;;;19.19;86.31;101041.05;1901906;75;21451;-70
2022/08/04 03:03:01;;;;;;;17.55;8.75;;;;;;;19.18;86.22;101037.14;1902050;75;21068;-71
2022/08/04 03:05:35;;;;;;;17.42;8.08;;;;;;;19.14;86.06;101040.52;1868470;75;21110;-74
2022/08/04 03:08:40;;;;;;;14.53;8.30;;;;;;;19.15;85.80;101049.39;1913757;75;21125;-72
2022/08/04 03:11:30;;;;;;;13.78;8.48;;;;;;;19.14;85.54;101045.84;1914337;75;21024;-70
2022/08/04 03:14:27;;;;;;;16.55;8.55;;;;;;;19.13;85.47;101041.48;1912835;75;21135;-70
2022/08/04 03:17:07;;;;;;;15.78;8.40;;;;;;;19.13;85.31;101046.83;1910742;75;21666;-72
2022/08/04 03:19:55;;;;;;;19.90;8.18;;;;;;;19.15;85.20;101048.06;1914221;75;21164;-70
2022/08/04 03:22:32;;;;;;;16.32;7.80;;;;;;;19.16;85.08;101050.59;1914250;75;21552;-70
2022/08/04 03:25:30;;;;;;;15.40;9.10;;;;;;;19.20;85.23;101054.78;1899827;75;21139;-70
2022/08/04 03:28:27;;;;;;;16.37;8.88;;;;;;;19.28;85.30;101052.41;1900032;75;21503;-70
2022/08/04 03:31:30;;;;;;;16.87;8.25;;;;;;;19.47;85.50;101047.09;1901924;75;21024;-72
2022/08/04 03:34:17;;;;;;;25.55;7.72;;;;;;;19.68;86.12;101053.57;1902122;75;21056;-71
2022/08/04 03:37:05;;;;;;;13.32;7.37;;;;;;;19.93;86.49;101048.28;1882132;75;21067;-70
2022/08/04 03:39:58;;;;;;;13.43;7.08;;;;;;;20.10;86.02;101055.89;1881048;76;21032;-69
2022/08/04 03:42:48;;;;;;;9.75;6.95;;;;;;;20.26;85.84;101051.60;1880847;76;21087;-69
2022/08/04 03:45:26;;;;;;;15.10;7.42;;;;;;;20.43;85.56;101059.69;1880773;76;21024;-69
2022/08/04 03:48:00;;;;;;;11.93;6.92;;;;;;;20.62;85.28;101053.84;1879609;76;21036;-69
2022/08/04 03:53:55;;;;;;;13.45;6.30;;;;;;;20.98;84.24;101066.68;1880793;76;21486;-68
2022/08/04 03:56:30;;;;;;;13.60;6.97;;;;;;;21.20;84.26;101056.48;1880828;76;21114;-70
2022/08/04 03:59:18;;;;;;;12.82;6.47;;;;;;;21.43;83.70;101055.13;1880753;75;21110;-69
2022/08/04 04:02:23;;;;;;;11.08;6.62;;;;;;;21.65;83.30;101054.29;1880759;75;21522;-69
2022/08/04 04:05:24;;;;;;;18.77;8.05;;;;;;;21.91;82.70;101050.36;1880709;76;21068;-70
2022/08/04 04:08:16;;;;;;;9.18;6.60;;;;;;;22.25;81.96;101048.89;1880304;76;21502;-70
2022/08/04 04:11:14;;;;;;;15.00;7.20;;;;;;;22.65;81.28;101054.95;1880737;76;21036;-69
2022/08/04 04:13:54;;;;;;;11.50;6.40;;;;;;;23.04;80.50;101047.16;1880808;76;21466;-73
2022/08/04 04:16:47;;;;;;;17.07;7.30;;;;;;;23.40;79.23;101051.62;1880775;76;21595;-73
2022/08/04 04:19:44;;;;;;;11.88;7.03;;;;;;;23.72;78.49;101046.58;1880310;76;21040;-71
2022/08/04 04:22:27;;;;;;;15.58;5.85;;;;;;;24.03;77.86;101037.08;1839921;76;21176;-72
2022/08/04 04:25:26;;;;;;;17.55;6.53;;;;;;;24.47;77.28;101044.23;1880819;75;21040;-71
2022/08/04 04:28:06;;;;;;;15.03;7.20;;;;;;;24.85;76.81;101039.81;1834079;77;21077;-73
2022/08/04 04:30:41;;;;;;;10.78;6.10;;;;;;;25.23;76.14;101036.63;1834212;78;21147;-71
2022/08/04 04:33:45;;;;;;;12.23;6.72;;;;;;;25.63;75.16;101042.21;1860207;76;21040;-73
2022/08/04 04:36:20;;;;;;;10.65;6.53;;;;;;;25.98;74.29;101044.13;1889936;75;21044;-72
2022/08/04 04:39:18;;;;;;;8.73;5.33;;;;;;;26.34;73.46;101040.61;1899796;75;21467;-72
2022/08/04 04:42:08;;;;;;;9.98;6.47;;;;;;;26.61;72.77;101045.56;1901855;75;21204;-72
2022/08/04 04:44:45;;;;;;;14.63;7.35;;;;;;;26.85;71.41;101048.42;1901747;75;21612;-73
2022/08/04 04:47:22;;;;;;;10.55;5.97;;;;;;;27.02;70.45;101049.88;1900550;75;21037;-72
2022/08/04 04:50:13;;;;;;;9.43;5.65;;;;;;;27.14;69.41;101042.69;1901891;75;21038;-71
2022/08/04 04:52:44;;;;;;;10.68;6.12;;;;;;;27.43;69.01;101046.09;1914111;75;21032;-72
2022/08/04 04:55:19;;;;;;;8.30;5.85;;;;;;;27.73;68.63;101044.14;1913946;75;21160;-71
2022/08/04 04:57:50;;;;;;;9.98;5.37;;;;;;;28.01;67.82;101039.83;1901207;75;21091;-72
2022/08/04 05:00:20;;;;;;;10.68;5.58;;;;;;;28.30;67.47;101043.93;1901905;75;21474;-72
2022/08/04 05:03:19;;;;;;;8.95;5.00;;;;;;;28.64;66.82;101049.70;1901931;75;21040;-72
2022/08/04 05:05:53;;;;;;;10.48;5.53;;;;;;;28.97;66.21;101045.06;1901848;75;21032;-72
2022/08/04 05:08:27;;;;;;;10.25;5.47;;;;;;;29.34;65.33;101043.61;1901485;75;21072;-72
2022/08/04 05:11:25;;;;;;;10.68;5.70;;;;;;;29.52;64.44;101047.44;1901895;75;21036;-72
2022/08/04 05:14:05;;;;;;;12.85;5.75;;;;;;;29.78;64.07;101046.33;1901941;75;21621;-72
2022/08/04 05:16:39;;;;;;;8.65;5.45;;;;;;;30.02;63.23;101047.52;1900487;75;21036;-72
2022/08/04 05:19:26;;;;;;;10.00;5.37;;;;;;;30.37;62.64;101045.24;1900218;75;21091;-73
2022/08/04 05:22:06;;;;;;;11.70;6.60;;;;;;;30.72;62.09;101042.05;1901901;75;21114;-74
2022/08/04 05:24:40;;;;;;;12.15;5.90;;;;;;;31.03;61.07;101042.45;1902050;75;21036;-72
2022/08/04 05:27:21;;;;;;;12.13;6.17;;;;;;;31.08;60.14;101044.94;1901940;75;21502;-72
2022/08/04 05:29:58;;;;;;;11.05;5.75;;;;;;;31.30;59.75;101043.64;1901962;75;21044;-72
2022/08/04 05:32:30;;;;;;;10.65;5.90;;;;;;;31.51;59.25;101043.73;1901805;75;21110;-72
2022/08/04 05:35:08;;;;;;;17.32;7.67;;;;;;;31.73;58.49;101047.88;1902191;75;21109;-71
2022/08/04 05:37:40;;;;;;;12.82;6.70;;;;;;;31.88;57.52;101046.47;1885337;75;21545;-71
2022/08/04 05:40:10;;;;;;;12.40;5.55;;;;;;;32.07;56.88;101053.18;1881049;76;21153;-71
2022/08/04 05:42:40;;;;;;;6.60;4.37;;;;;;;32.28;56.33;101049.10;1880867;76;21100;-72
2022/08/04 05:45:10;;;;;;;8.38;5.37;;;;;;;32.45;55.64;101044.21;1880844;76;21753;-72
2022/08/04 05:47:38;;;;;;;11.48;5.10;;;;;;;32.41;54.44;101040.73;1880897;76;21095;-72
2022/08/04 05:50:09;;;;;;;8.08;4.80;;;;;;;32.60;53.30;101041.42;1880867;76;21012;-71
2022/08/04 05:52:38;;;;;;;7.03;4.70;;;;;;;32.60;53.30;101041.42;1880905;76;21087;-72
2022/08/04 05:55:09;;;;;;;8.68;4.50;;;;;;;32.88;53.62;101044.66;1880926;76;21117;-71
2022/08/04 05:57:40;;;;;;;9.93;4.78;;;;;;;32.82;51.49;101052.28;1880914;76;21514;-72
2022/08/04 06:00:11;;;;;;;12.23;5.27;;;;;;;32.62;50.86;101043.43;1880638;75;21020;-71
2022/08/04 06:02:40;;;;;;;11.85;4.75;;;;;;;32.81;51.07;101056.04;1880870;76;21040;-71
2022/08/04 06:05:13;;;;;;;9.50;4.95;;;;;;;32.93;50.41;101050.36;1880853;76;21502;-71
2022/08/04 06:07:42;;;;;;;8.68;4.83;;;;;;;33.14;50.43;101050.83;1881000;76;21129;-72
2022/08/04 06:10:11;;;;;;;8.18;4.83;;;;;;;32.95;48.93;101048.81;1880849;76;21525;-72
2022/08/04 06:12:45;;;;;;;9.33;5.35;;;;;;;31.89;49.54;101029.95;1880951;76;21064;-71
2022/08/04 06:15:17;;;;;;;7.67;4.92;;;;;;;31.89;49.54;101029.95;1880878;76;21036;-71
2022/08/04 06:17:49;;;;;;;8.80;5.45;;;;;;;31.25;50.15;101044.22;1881032;76;21117;-71
2022/08/04 06:20:20;;;;;;;16.70;5.55;;;;;;;31.03;50.75;101044.64;1881072;76;21109;-72
2022/08/04 06:22:51;;;;;;;9.03;4.95;;;;;;;31.86;50.72;101047.19;1880966;76;21188;-71
2022/08/04 06:25:26;;;;;;;9.58;5.67;;;;;;;32.54;50.32;101042.69;1879795;76;21111;-71
2022/08/04 06:27:56;;;;;;;8.28;4.65;;;;;;;31.99;49.94;101036.42;1879458;76;21044;-71
2022/08/04 06:30:27;;;;;;;11.22;7.53;;;;;;;31.34;49.91;101032.73;1880898;76;21044;-71
2022/08/04 06:32:59;;;;;;;9.90;5.00;;;;;;;31.55;50.42;101034.16;1880813;76;21450;-71
2022/08/04 06:35:28;;;;;;;12.13;6.03;;;;;;;32.35;49.97;101026.51;1880932;75;21044;-71
2022/08/04 06:37:59;;;;;;;12.82;5.62;;;;;;;33.15;49.52;101028.50;1893053;75;21145;-72
2022/08/04 06:40:28;;;;;;;9.98;5.83;;;;;;;33.50;48.31;101030.64;1902008;75;21040;-71
2022/08/04 06:42:58;;;;;;;12.25;5.25;;;;;;;33.80;45.17;101029.80;1901950;75;21048;-71
2022/08/04 06:45:28;;;;;;;8.28;4.40;;;;;;;34.01;45.76;101034.78;1901827;75;21147;-71
2022/08/04 06:47:58;;;;;;;13.53;5.70;;;;;;;34.01;45.76;101034.78;1902023;75;21467;-71
2022/08/04 06:50:27;;;;;;;13.95;4.85;;;;;;;34.17;45.19;101024.02;1901963;75;21545;-71
2022/08/04 06:52:56;;;;;;;13.80;5.72;;;;;;;34.56;44.64;101029.16;1901954;75;21044;-71
2022/08/04 06:55:25;;;;;;;10.58;5.72;;;;;;;34.41;43.73;101023.91;1901982;75;21486;-71
2022/08/04 06:57:56;;;;;;;9.53;5.92;;;;;;;34.19;43.91;101024.11;1901819;75;21016;-72
2022/08/04 07:00:26;;;;;;;8.80;5.78;;;;;;;33.32;44.61;101015.35;1902043;75;21044;-72
2022/08/04 07:02:56;;;;;;;15.03;6.42;;;;;;;32.74;45.46;101012.89;1901934;75;21557;-72
2022/08/04 07:05:25;;;;;;;16.50;6.20;;;;;;;32.39;46.15;101019.63;1901875;75;21016;-72
2022/08/04 07:07:55;;;;;;;13.43;6.03;;;;;;;31.96;46.71;101018.27;1901966;75;21044;-72
2022/08/04 07:10:26;;;;;;;8.65;4.53;;;;;;;32.38;46.95;100866.20;1901831;75;21498;-72
2022/08/04 07:13:00;;;;;;;10.38;5.17;;;;;;;33.27;46.67;101012.72;1902207;75;21044;-72
2022/08/04 07:15:29;;;;;;;14.43;5.60;;;;;;;33.75;44.45;101015.09;1902000;75;21080;-72
2022/08/04 07:18:00;;;;;;;9.28;4.35;;;;;;;34.38;44.40;101007.92;1901936;75;21515;-71
2022/08/04 07:20:30;;;;;;;11.15;4.80;;;;;;;34.85;42.91;101022.42;1901940;75;21071;-72
2022/08/04 07:23:00;;;;;;;12.80;5.05;;;;;;;34.93;42.07;101022.71;1901801;75;21388;-73
2022/08/04 07:25:29;;;;;;;6.15;4.22;;;;;;;35.28;42.31;101022.42;1901905;75;21051;-72
2022/08/04 07:27:58;;;;;;;10.25;3.83;;;;;;;35.61;41.98;101021.42;1901909;75;21443;-72
2022/08/04 07:30:29;;;;;;;7.62;4.67;;;;;;;35.63;41.61;101012.46;1901955;75;21113;-72
2022/08/04 07:32:58;;;;;;;8.80;4.58;;;;;;;35.66;41.56;101010.13;1902246;75;21474;-72
2022/08/04 07:35:28;;;;;;;7.20;4.80;;;;;;;35.95;41.29;101013.36;1901817;75;21029;-73
2022/08/04 07:37:57;;;;;;;7.12;4.30;;;;;;;35.99;41.03;101018.69;1901026;75;21056;-72
2022/08/04 07:40:26;;;;;;;6.60;4.12;;;;;;;35.46;39.50;101010.77;1901763;75;21146;-72
2022/08/04 07:42:55;;;;;;;6.53;4.17;;;;;;;35.37;40.12;101015.11;1901814;75;21048;-72
2022/08/04 07:45:25;;;;;;;6.72;4.10;;;;;;;35.75;40.22;101010.20;1901882;75;21114;-72
2022/08/04 07:47:54;;;;;;;6.22;3.75;;;;;;;36.12;39.69;101018.58;1901841;75;21043;-72
2022/08/04 07:50:23;;;;;;;6.72;3.58;;;;;;;36.44;39.21;101014.44;1901908;75;21571;-72
2022/08/04 07:52:52;;;;;;;8.48;3.83;;;;;;;37.04;38.62;101013.03;1901934;75;21478;-72
2022/08/04 07:55:23;;;;;;;6.25;4.10;;;;;;;37.05;37.46;101011.94;1901899;74;21125;-72
2022/08/04 07:57:51;;;;;;;7.20;3.72;;;;;;;36.92;36.83;101013.48;1901887;75;21017;-72
2022/08/04 08:00:20;;;;;;;10.13;4.42;;;;;;;36.82;36.95;101010.73;1901810;75;21055;-73
2022/08/04 08:02:54;;;;;;;8.38;4.15;;;;;;;36.43;37.51;101007.80;1901896;75;21142;-72
2022/08/04 08:05:23;;;;;;;6.33;3.77;;;;;;;35.42;38.43;101013.63;1901871;75;21114;-73
2022/08/04 08:07:53;;;;;;;10.45;3.60;;;;;;;34.32;39.25;101011.52;1901909;75;21486;-72
2022/08/04 08:10:22;;;;;;;7.37;4.03;;;;;;;33.75;40.11;101013.19;1901911;75;21443;-72
2022/08/04 08:12:52;;;;;;;8.73;4.08;;;;;;;33.55;40.64;101010.91;1901869;75;21493;-73
2022/08/04 08:15:22;;;;;;;8.70;3.75;;;;;;;33.99;40.53;101013.66;1901906;75;21474;-72
2022/08/04 08:17:51;;;;;;;5.90;3.92;;;;;;;35.09;40.05;101011.84;1901984;75;21118;-72
2022/08/04 08:20:20;;;;;;;5.40;3.40;;;;;;;36.13;38.99;101006.58;1901950;75;21157;-72
2022/08/04 08:22:49;;;;;;;6.90;4.28;;;;;;;36.89;38.51;101001.89;1901867;75;21126;-71
2022/08/04 08:25:18;;;;;;;7.37;4.17;;;;;;;37.46;37.44;101000.27;1901835;75;21115;-72
2022/08/04 08:27:47;;;;;;;10.13;4.15;;;;;;;37.73;36.95;100997.70;1901830;75;21566;-72
2022/08/04 08:30:15;;;;;;;7.17;4.45;;;;;;;37.54;36.91;100997.72;1901880;75;21040;-72
2022/08/04 08:32:44;;;;;;;4.87;3.85;;;;;;;36.77;37.21;100996.02;1901948;75;21106;-72
2022/08/04 08:35:13;;;;;;;10.23;3.95;;;;;;;35.90;37.85;100993.99;1901885;75;21036;-72
2022/08/04 08:37:47;;;;;;;5.35;3.75;;;;;;;35.31;38.48;100991.89;1901860;75;21486;-72
2022/08/04 08:40:34;;;;;;;7.87;4.20;;;;;;;35.31;38.45;100985.87;1900199;75;21147;-72
2022/08/04 08:43:21;;;;;;;6.42;3.98;;;;;;;35.10;39.02;100988.37;1914342;75;21033;-71
2022/08/04 08:45:55;;;;;;;5.78;3.30;;;;;;;34.42;39.17;100988.70;1900874;75;21040;-71
2022/08/04 08:48:42;;;;;;;15.03;5.78;;;;;;;33.95;39.87;100991.91;1901489;75;21110;-72
2022/08/04 08:51:30;;;;;;;8.65;3.80;;;;;;;33.76;40.17;100985.38;1913963;75;21153;-72
2022/08/04 08:54:28;;;;;;;6.00;3.70;;;;;;;33.36;40.38;100977.88;1914196;75;21055;-72
2022/08/04 08:57:12;;;;;;;7.80;4.37;;;;;;;33.64;40.47;100981.00;1913048;75;21023;-72
2022/08/04 09:00:06;;;;;;;9.03;4.22;;;;;;;34.48;39.77;100969.25;1913624;75;21161;-72
2022/08/04 09:02:56;;;;;;;7.95;4.17;;;;;;;35.64;39.02;100973.91;1914156;75;21549;-72
2022/08/04 09:05:53;;;;;;;10.70;3.95;;;;;;;35.37;38.98;100974.58;1912033;75;21020;-73
2022/08/04 09:08:57;;;;;;;10.72;4.20;;;;;;;34.86;39.65;100977.61;1914139;75;21027;-73
2022/08/04 09:11:28;;;;;;;5.92;3.58;;;;;;;34.53;40.06;100986.70;1912611;75;21562;-73
2022/08/04 09:14:11;;;;;;;4.28;2.98;;;;;;;34.47;40.09;100982.05;1911903;75;21015;-72
2022/08/04 09:16:50;;;;;;;4.75;3.47;;;;;;;35.03;39.59;100988.91;1913326;75;21160;-72
2022/08/04 09:19:44;;;;;;;8.35;4.00;;;;;;;34.87;39.40;100983.91;1913858;75;21047;-72
2022/08/04 09:22:22;;;;;;;6.03;3.60;;;;;;;34.67;39.76;100979.83;1914257;75;21109;-72
2022/08/04 09:25:03;;;;;;;6.70;3.52;;;;;;;34.33;40.11;100984.51;1901611;75;21185;-72
2022/08/04 09:27:55;;;;;;;11.25;3.42;;;;;;;33.88;40.26;100989.70;1900803;75;21490;-72
2022/08/04 09:30:42;;;;;;;6.08;3.27;;;;;;;33.41;40.66;100987.66;1902079;75;21098;-72
2022/08/04 09:33:19;;;;;;;8.73;3.92;;;;;;;33.50;41.08;100976.58;1901683;75;21169;-72
2022/08/04 09:36:16;;;;;;;5.45;3.62;;;;;;;34.45;39.94;100975.13;1901184;75;21114;-72
2022/08/04 09:38:53;;;;;;;5.25;3.30;;;;;;;34.45;39.94;100975.13;1901864;75;21032;-72
2022/08/04 09:41:58;;;;;;;5.28;3.37;;;;;;;35.47;38.62;100972.73;1898839;75;21182;-71
2022/08/04 09:44:32;;;;;;;6.60;3.30;;;;;;;35.46;38.25;100975.17;1880759;76;21506;-71
2022/08/04 09:47:06;;;;;;;8.15;3.15;;;;;;;35.79;38.09;100977.73;1880216;76;21715;-71
2022/08/04 09:50:00;;;;;;;9.40;4.00;;;;;;;36.11;37.35;100979.89;1880823;75;21032;-71
2022/08/04 09:52:34;;;;;;;6.33;3.80;;;;;;;35.67;37.96;100970.73;1863299;76;21486;-71
2022/08/04 09:55:11;;;;;;;4.78;3.27;;;;;;;35.14;38.50;100975.09;1879458;76;21040;-72
2022/08/04 09:57:45;;;;;;;7.50;4.67;;;;;;;34.52;38.38;100983.63;1879839;76;21916;-71
2022/08/04 10:00:19;;;;;;;6.67;3.45;;;;;;;33.87;38.54;100983.94;1880345;76;21134;-72
2022/08/04 10:03:01;;;;;;;7.55;3.80;;;;;;;33.74;39.23;100976.03;1880818;76;21040;-71
2022/08/04 10:06:08;;;;;;;6.92;3.58;;;;;;;33.74;39.23;100976.03;1880737;76;21012;-72
2022/08/04 10:09:06;;;;;;;5.62;3.15;;;;;;;33.42;39.10;100981.17;1880910;76;21491;-72
2022/08/04 10:11:43;;;;;;;6.05;3.12;;;;;;;33.42;39.10;100981.17;1871405;76;21052;-71
2022/08/04 10:14:24;;;;;;;7.15;4.12;;;;;;;33.91;38.69;100982.47;1880869;76;21028;-72
2022/08/04 10:17:07;;;;;;;3.02;2.40;;;;;;;34.58;38.42;100977.33;1879071;76;21494;-72
2022/08/04 10:19:39;;;;;;;7.20;3.55;;;;;;;35.10;37.73;100969.72;1880443;76;21506;-72
2022/08/04 10:22:13;;;;;;;4.20;2.95;;;;;;;34.69;37.68;100973.64;1880943;76;21040;-72
2022/08/04 10:25:04;;;;;;;5.17;4.20;;;;;;;34.28;37.85;100976.09;1880318;76;21084;-71
2022/08/04 10:27:35;;;;;;;4.35;3.08;;;;;;;34.23;38.02;100978.08;1880740;75;21568;-72
2022/08/04 10:30:13;;;;;;;8.38;3.40;;;;;;;34.10;38.40;100976.16;1881038;76;21060;-72
2022/08/04 10:33:05;;;;;;;7.28;3.37;;;;;;;33.51;38.59;100965.43;1880746;76;21166;-72
2022/08/04 10:35:37;;;;;;;6.67;3.70;;;;;;;33.51;38.59;100965.43;1880865;76;21044;-72
2022/08/04 10:38:32;;;;;;;4.07;3.00;;;;;;;33.53;38.78;100974.78;1881203;76;21036;-72
2022/08/04 10:41:07;;;;;;;5.05;2.92;;;;;;;33.61;38.77;100959.44;1880772;76;21087;-72
2022/08/04 10:43:38;;;;;;;5.37;2.62;;;;;;;33.90;38.28;100958.92;1893138;75;21076;-71
2022/08/04 10:46:13;;;;;;;3.63;2.77;;;;;;;33.90;38.28;100958.92;1914000;75;21020;-72
2022/08/04 10:48:44;;;;;;;6.55;3.40;;;;;;;34.17;38.09;100964.73;1904195;75;21035;-72
2022/08/04 10:51:22;;;;;;;5.20;2.80;;;;;;;34.57;37.46;100960.60;1914411;75;21012;-73
2022/08/04 10:53:54;;;;;;;3.85;2.80;;;;;;;34.66;36.59;100963.09;1914238;75;21793;-71
2022/08/04 10:56:34;;;;;;;5.65;2.83;;;;;;;34.81;36.53;100961.00;1911271;75;21035;-71
2022/08/04 10:59:06;;;;;;;4.80;2.50;;;;;;;34.93;36.40;100959.80;1914345;75;21040;-71
2022/08/04 11:01:39;;;;;;;3.25;2.60;;;;;;;35.17;36.40;100948.64;1914163;75;21072;-71
2022/08/04 11:04:13;;;;;;;5.83;3.05;;;;;;;35.07;36.28;100953.22;1913305;75;21079;-71
2022/08/04 11:06:43;;;;;;;6.35;3.50;;;;;;;34.69;36.51;100951.77;1913677;75;21126;-71
2022/08/04 11:09:13;;;;;;;4.25;2.92;;;;;;;34.25;36.67;100945.91;1914301;75;21016;-71
2022/08/04 11:11:47;;;;;;;4.58;2.90;;;;;;;33.81;37.34;100940.02;1914215;75;21011;-71
2022/08/04 11:14:19;;;;;;;4.10;2.47;;;;;;;33.63;37.57;100947.94;1912145;75;21047;-71
2022/08/04 11:17:02;;;;;;;5.67;2.70;;;;;;;33.53;37.72;100943.39;1913618;75;21043;-71
2022/08/04 11:19:46;;;;;;;3.70;2.90;;;;;;;33.52;37.68;100943.09;1850675;75;21182;-71
2022/08/04 11:22:20;;;;;;;6.20;3.05;;;;;;;33.46;37.59;100937.41;1914236;75;21041;-71
2022/08/04 11:25:09;;;;;;;4.25;2.77;;;;;;;33.38;37.80;100943.57;1913607;75;21125;-71
2022/08/04 11:27:46;;;;;;;6.42;3.30;;;;;;;33.18;37.46;100942.13;1914247;75;21165;-71
2022/08/04 11:30:17;;;;;;;5.15;2.80;;;;;;;33.18;37.46;100942.13;1914217;75;21032;-71
2022/08/04 11:32:48;;;;;;;5.65;2.87;;;;;;;33.04;38.06;100943.95;1914241;75;21068;-71
2022/08/04 11:35:36;;;;;;;5.37;3.10;;;;;;;32.96;38.28;100940.88;1907418;75;21102;-71
2022/08/04 11:38:11;;;;;;;6.72;2.98;;;;;;;33.00;38.38;100938.59;1914212;75;21032;-71
2022/08/04 11:40:45;;;;;;;11.12;2.80;;;;;;;33.06;38.33;100939.97;1913575;75;21041;-71
2022/08/04 11:43:23;;;;;;;3.72;2.60;;;;;;;32.88;38.17;100936.42;1914175;75;21482;-71
2022/08/04 11:45:54;;;;;;;4.42;2.83;;;;;;;32.67;38.48;100931.91;1912897;75;21044;-71
2022/08/04 11:48:29;;;;;;;5.72;2.90;;;;;;;32.55;38.37;100925.30;1914487;75;21036;-72
2022/08/04 11:51:01;;;;;;;4.62;2.58;;;;;;;32.46;38.89;100925.14;1913637;75;21102;-71
2022/08/04 11:53:30;;;;;;;5.33;2.67;;;;;;;32.22;38.98;100925.95;1914548;75;21110;-71
2022/08/04 11:56:02;;;;;;;9.53;3.05;;;;;;;32.04;39.28;100927.79;1914139;75;21462;-72
2022/08/04 11:58:31;;;;;;;5.60;2.83;;;;;;;31.96;39.62;100924.32;1914375;75;21102;-71
2022/08/04 12:01:15;;;;;;;4.47;2.37;;;;;;;31.85;39.47;100923.80;1914187;74;21104;-71
2022/08/04 12:03:49;;;;;;;5.10;2.58;;;;;;;31.71;39.94;100916.58;1884431;75;21522;-71
2022/08/04 12:06:27;;;;;;;4.70;2.72;;;;;;;31.57;40.04;100922.91;1912277;75;21125;-71
2022/08/04 12:09:10;;;;;;;4.40;2.72;;;;;;;31.44;39.96;100929.86;1878507;75;21521;-71
2022/08/04 12:12:01;;;;;;;4.22;2.80;;;;;;;31.36;40.28;100921.84;1914258;75;21490;-71